createdAt,value
2023-05-04T00:02:09.690Z,30.67
2023-05-04T00:04:37.135Z,27.42
2023-05-04T00:07:04.560Z,26.65
2023-05-04T00:09:32.627Z,28.98
2023-05-04T00:11:59.978Z,28.13
2023-05-04T00:14:27.327Z,31.08
2023-05-04T00:16:54.642Z,30.00
2023-05-04T00:19:21.946Z,30.35
2023-05-04T00:21:49.224Z,31.30
2023-05-04T00:24:16.515Z,30.73
2023-05-04T00:26:45.532Z,30.88
2023-05-04T00:29:12.959Z,32.83
2023-05-04T00:31:40.312Z,31.42
2023-05-04T00:34:07.766Z,29.73
2023-05-04T00:36:35.444Z,34.20
2023-05-04T00:39:02.768Z,29.48
2023-05-04T00:41:30.121Z,29.30
2023-05-04T00:43:59.682Z,33.38
2023-05-04T00:46:27.051Z,28.00
2023-05-04T00:48:54.397Z,29.63
2023-05-04T00:51:23.709Z,31.23
2023-05-04T00:53:51.520Z,35.00
2023-05-04T00:56:18.928Z,32.58
2023-05-04T00:58:46.424Z,31.58
2023-05-04T01:01:13.833Z,30.27
2023-05-04T01:03:41.185Z,30.48
2023-05-04T01:06:52.098Z,29.95
2023-05-04T01:09:24.133Z,32.33
2023-05-04T01:11:58.968Z,32.75
2023-05-04T01:14:26.509Z,29.70
2023-05-04T01:16:56.349Z,33.28
2023-05-04T01:19:23.837Z,32.67
2023-05-04T01:21:51.340Z,34.03
2023-05-04T01:24:18.708Z,31.25
2023-05-04T01:26:46.703Z,32.03
2023-05-04T01:29:23.499Z,31.08
2023-05-04T01:31:50.879Z,29.40
2023-05-04T01:34:18.880Z,33.30
2023-05-04T01:36:46.271Z,31.67
2023-05-04T01:39:13.601Z,32.47
2023-05-04T01:41:42.157Z,32.80
2023-05-04T01:44:09.509Z,38.28
2023-05-04T01:46:36.947Z,35.67
2023-05-04T01:49:04.323Z,30.63
2023-05-04T01:51:31.650Z,29.52
2023-05-04T01:53:58.989Z,33.38
2023-05-04T01:56:26.297Z,34.35
2023-05-04T01:58:53.651Z,30.80
2023-05-04T02:01:21.264Z,32.55
2023-05-04T02:03:49.431Z,34.00
2023-05-04T02:06:17.136Z,32.03
2023-05-04T02:08:44.494Z,32.00
2023-05-04T02:11:11.842Z,31.67
2023-05-04T02:13:39.198Z,29.63
2023-05-04T02:16:06.864Z,34.40
2023-05-04T02:18:34.274Z,35.28
2023-05-04T02:21:01.686Z,31.85
2023-05-04T02:23:29.657Z,32.75
2023-05-04T02:25:59.202Z,34.88
2023-05-04T02:28:26.503Z,30.17
2023-05-04T02:30:53.839Z,34.72
2023-05-04T02:33:21.137Z,32.28
2023-05-04T02:35:48.923Z,32.30
2023-05-04T02:38:16.427Z,36.08
2023-05-04T02:40:43.797Z,35.97
2023-05-04T02:43:11.618Z,31.95
2023-05-04T02:45:39.016Z,33.60
2023-05-04T02:48:06.377Z,34.53
2023-05-04T02:50:33.746Z,32.30
2023-05-04T02:53:01.076Z,32.40
2023-05-04T02:55:28.464Z,33.95
2023-05-04T02:57:55.981Z,36.35
2023-05-04T03:00:23.489Z,34.00
2023-05-04T03:02:50.914Z,34.50
2023-05-04T03:05:18.357Z,34.60
2023-05-04T03:07:46.012Z,37.58
2023-05-04T03:10:13.376Z,32.00
2023-05-04T03:12:40.981Z,33.67
2023-05-04T03:15:08.979Z,34.72
2023-05-04T03:17:37.225Z,31.13
2023-05-04T03:20:05.593Z,34.80
2023-05-04T03:22:34.161Z,32.92
2023-05-04T03:25:01.814Z,36.05
2023-05-04T03:27:29.687Z,34.40
2023-05-04T03:29:57.407Z,34.35
2023-05-04T03:32:26.436Z,34.00
2023-05-04T03:34:53.942Z,41.72
2023-05-04T03:37:23.512Z,35.00
2023-05-04T03:39:50.905Z,32.60
2023-05-04T03:42:18.226Z,35.33
2023-05-04T03:44:46.772Z,36.90
2023-05-04T03:47:14.150Z,35.50
2023-05-04T03:49:41.501Z,32.45
2023-05-04T03:52:08.796Z,35.78
2023-05-04T03:54:37.887Z,34.72
2023-05-04T03:57:05.173Z,39.47
2023-05-04T03:59:34.440Z,35.03
2023-05-04T04:02:04.621Z,42.50
2023-05-04T04:04:32.084Z,38.58
2023-05-04T04:06:59.477Z,33.75
2023-05-04T04:09:27.149Z,37.50
2023-05-04T04:11:54.495Z,35.70
2023-05-04T04:14:21.830Z,39.10
2023-05-04T04:16:49.111Z,33.55
2023-05-04T04:19:16.452Z,36.65
2023-05-04T04:21:43.814Z,35.90
2023-05-04T04:24:11.279Z,32.20
2023-05-04T04:26:38.904Z,36.67
2023-05-04T04:29:06.263Z,35.92
2023-05-04T04:31:33.690Z,34.50
2023-05-04T04:34:01.026Z,38.72
2023-05-04T04:36:28.366Z,35.90
2023-05-04T04:38:55.683Z,35.47
2023-05-04T04:41:23.241Z,43.15
2023-05-04T04:43:50.658Z,36.50
2023-05-04T04:46:18.288Z,38.70
2023-05-04T04:48:45.682Z,38.20
2023-05-04T04:51:13.380Z,36.00
2023-05-04T04:53:40.760Z,39.28
2023-05-04T04:56:09.679Z,33.65
2023-05-04T04:58:37.040Z,35.33
2023-05-04T05:01:05.386Z,41.03
2023-05-04T05:03:33.971Z,39.08
2023-05-04T05:06:04.097Z,39.53
2023-05-04T05:08:32.867Z,33.83
2023-05-04T05:11:00.278Z,38.10
2023-05-04T05:13:27.576Z,37.38
2023-05-04T05:15:54.906Z,36.38
2023-05-04T05:18:22.257Z,36.10
2023-05-04T05:20:49.673Z,37.08
2023-05-04T05:23:17.934Z,36.05
2023-05-04T05:25:45.266Z,36.53
2023-05-04T05:28:13.978Z,39.10
2023-05-04T05:30:41.805Z,32.80
2023-05-04T05:33:10.204Z,33.25
2023-05-04T05:35:37.581Z,32.03
2023-05-04T05:38:04.901Z,32.55
2023-05-04T05:40:32.694Z,31.88
2023-05-04T05:43:00.029Z,28.98
2023-05-04T05:45:27.376Z,33.40
2023-05-04T05:47:54.812Z,28.73
2023-05-04T05:50:23.275Z,32.67
2023-05-04T05:52:50.757Z,29.65
2023-05-04T05:55:18.210Z,27.73
2023-05-04T05:57:45.587Z,29.17
2023-05-04T06:00:13.961Z,39.33
2023-05-04T06:02:42.684Z,28.17
2023-05-04T06:05:10.816Z,27.67
2023-05-04T06:07:38.180Z,32.15
2023-05-04T06:10:06.174Z,35.08
2023-05-04T06:12:33.900Z,30.92
2023-05-04T06:15:01.481Z,30.77
2023-05-04T06:17:28.864Z,31.15
2023-05-04T06:19:56.321Z,30.30
2023-05-04T06:22:23.655Z,39.00
2023-05-04T06:24:51.242Z,42.80
2023-05-04T06:27:18.887Z,35.10
2023-05-04T06:29:46.664Z,35.25
2023-05-04T06:32:14.057Z,34.22
2023-05-04T06:34:41.465Z,26.73
2023-05-04T06:37:08.785Z,24.90
2023-05-04T06:39:36.077Z,26.83
2023-05-04T06:42:03.612Z,23.60
2023-05-04T06:44:40.016Z,25.27
2023-05-04T06:47:07.976Z,25.30
2023-05-04T06:49:35.313Z,24.30
2023-05-04T06:52:02.886Z,22.58
2023-05-04T06:54:31.721Z,20.83
2023-05-04T06:56:59.082Z,25.05
2023-05-04T06:59:26.748Z,25.02
2023-05-04T07:01:54.039Z,19.63
2023-05-04T07:04:23.330Z,23.33
2023-05-04T07:06:51.167Z,50.17
2023-05-04T07:09:22.166Z,27.65
2023-05-04T07:11:49.549Z,19.30
2023-05-04T07:14:16.907Z,27.40
2023-05-04T07:16:44.365Z,23.35
2023-05-04T07:19:11.850Z,19.60
2023-05-04T07:21:39.101Z,20.60
2023-05-04T07:24:07.388Z,18.55
2023-05-04T07:26:34.672Z,19.02
2023-05-04T07:29:02.053Z,16.48
2023-05-04T07:31:30.556Z,18.05
2023-05-04T07:33:58.253Z,21.63
2023-05-04T07:36:26.683Z,20.27
2023-05-04T07:38:54.271Z,18.55
2023-05-04T07:41:21.624Z,16.95
2023-05-04T07:43:49.098Z,16.65
2023-05-04T07:46:16.653Z,13.70
2023-05-04T07:48:44.046Z,15.32
2023-05-04T07:51:14.897Z,15.85
2023-05-04T07:53:43.595Z,14.07
2023-05-04T07:56:12.326Z,13.90
2023-05-04T07:58:39.727Z,14.82
2023-05-04T08:01:07.327Z,14.05
2023-05-04T08:03:36.393Z,16.17
2023-05-04T08:06:03.823Z,14.65
2023-05-04T08:08:31.132Z,17.20
2023-05-04T08:11:11.710Z,14.05
2023-05-04T08:13:46.669Z,15.23
2023-05-04T08:16:14.471Z,13.90
2023-05-04T08:18:41.946Z,12.82
2023-05-04T08:21:09.340Z,28.33
2023-05-04T08:23:36.768Z,20.98
2023-05-04T08:26:04.811Z,12.00
2023-05-04T08:28:36.316Z,19.48
2023-05-04T08:31:04.086Z,11.57
2023-05-04T08:33:32.191Z,12.18
2023-05-04T08:35:59.885Z,11.60
2023-05-04T08:38:27.280Z,13.98
2023-05-04T08:40:54.841Z,10.20
2023-05-04T08:43:22.152Z,13.05
2023-05-04T08:45:50.440Z,11.77
2023-05-04T08:48:17.967Z,10.23
2023-05-04T08:50:45.930Z,14.18
2023-05-04T08:53:16.095Z,17.25
2023-05-04T08:55:43.512Z,11.57
2023-05-04T08:58:12.932Z,10.70
2023-05-04T09:00:41.843Z,16.67
2023-05-04T09:03:10.453Z,23.23
2023-05-04T09:05:38.422Z,11.93
2023-05-04T09:08:06.485Z,12.23
2023-05-04T09:10:33.994Z,10.73
2023-05-04T09:13:01.365Z,10.77
2023-05-04T09:15:28.754Z,10.80
2023-05-04T09:18:06.630Z,12.68
2023-05-04T09:20:50.294Z,14.00
2023-05-04T09:23:18.299Z,10.43
2023-05-04T09:25:49.451Z,12.80
2023-05-04T09:28:17.048Z,12.18
2023-05-04T09:30:44.931Z,11.13
2023-05-04T09:33:12.457Z,12.10
2023-05-04T09:35:44.377Z,20.10
2023-05-04T09:38:11.788Z,7.22
2023-05-04T09:40:42.961Z,9.88
2023-05-04T09:43:10.858Z,14.48
2023-05-04T09:45:45.255Z,9.27
2023-05-04T09:48:25.700Z,16.98
2023-05-04T09:50:56.714Z,10.30
2023-05-04T09:53:25.308Z,9.73
2023-05-04T09:56:11.392Z,9.32
2023-05-04T09:58:38.804Z,9.98
2023-05-04T10:01:07.181Z,11.48
2023-05-04T10:03:34.572Z,21.92
2023-05-04T10:06:04.391Z,12.82
2023-05-04T10:08:32.537Z,14.75
2023-05-04T10:10:59.906Z,10.88
2023-05-04T10:13:27.974Z,13.43
2023-05-04T10:16:14.361Z,9.38
2023-05-04T10:18:53.399Z,11.38
2023-05-04T10:21:27.450Z,11.18
2023-05-04T10:24:01.871Z,10.25
2023-05-04T10:26:41.236Z,11.68
2023-05-04T10:29:22.587Z,11.40
2023-05-04T10:31:50.998Z,13.57
2023-05-04T10:34:32.396Z,10.73
2023-05-04T10:37:00.413Z,10.18
2023-05-04T10:39:30.193Z,10.23
2023-05-04T10:42:07.762Z,9.38
2023-05-04T10:44:55.445Z,9.32
2023-05-04T10:47:32.349Z,12.77
2023-05-04T10:50:07.222Z,10.85
2023-05-04T10:52:47.351Z,15.00
2023-05-04T10:55:14.868Z,10.40
2023-05-04T10:57:54.921Z,13.77
2023-05-04T11:00:22.675Z,13.43
2023-05-04T11:02:50.421Z,9.88
2023-05-04T11:05:20.058Z,9.80
2023-05-04T11:07:50.735Z,12.02
2023-05-04T11:10:36.121Z,11.50
2023-05-04T11:13:05.556Z,11.68
2023-05-04T11:15:43.419Z,8.93
2023-05-04T11:18:11.480Z,13.52
2023-05-04T11:20:38.840Z,10.02
2023-05-04T11:23:10.157Z,12.07
2023-05-04T11:25:37.709Z,25.17
2023-05-04T11:28:05.320Z,16.05
2023-05-04T11:30:36.303Z,13.05
2023-05-04T11:33:05.281Z,9.95
2023-05-04T11:35:32.676Z,20.02
2023-05-04T11:37:59.981Z,14.88
2023-05-04T11:40:27.727Z,17.67
2023-05-04T11:42:57.083Z,12.52
2023-05-04T11:45:26.046Z,16.27
2023-05-04T11:47:53.655Z,20.70
2023-05-04T11:50:21.050Z,14.73
2023-05-04T11:52:48.603Z,17.83
2023-05-04T11:55:29.772Z,12.85
2023-05-04T11:57:57.572Z,16.95
2023-05-04T12:00:44.300Z,14.13
2023-05-04T12:03:43.224Z,26.58
2023-05-04T12:06:15.106Z,14.60
2023-05-04T12:08:42.613Z,11.40
2023-05-04T12:11:25.918Z,29.55
2023-05-04T12:14:10.149Z,31.00
2023-05-04T12:16:38.187Z,44.85
2023-05-04T12:19:11.055Z,13.15
2023-05-04T12:21:52.989Z,12.43
2023-05-04T12:24:24.395Z,8.73
2023-05-04T12:26:52.141Z,11.52
2023-05-04T12:29:19.575Z,13.20
2023-05-04T12:31:47.211Z,10.05
2023-05-04T12:34:14.587Z,10.82
2023-05-04T12:36:41.891Z,9.52
2023-05-04T12:39:45.477Z,8.38
2023-05-04T12:42:12.870Z,8.57
2023-05-04T12:44:40.250Z,11.75
2023-05-04T12:47:07.586Z,13.30
2023-05-04T12:49:34.924Z,11.18
2023-05-04T12:52:02.270Z,10.27
2023-05-04T12:54:29.598Z,11.30
2023-05-04T12:56:57.993Z,9.65
2023-05-04T12:59:26.864Z,10.13
2023-05-04T13:01:54.455Z,11.93
2023-05-04T13:04:21.897Z,10.20
2023-05-04T13:06:49.256Z,10.07
2023-05-04T13:09:16.621Z,15.95
2023-05-04T13:11:44.822Z,11.27
2023-05-04T13:14:13.576Z,7.35
2023-05-04T13:16:41.628Z,10.70
2023-05-04T13:19:08.997Z,13.20
2023-05-04T13:21:36.545Z,14.20
2023-05-04T13:24:04.129Z,10.30
2023-05-04T13:26:31.457Z,9.55
2023-05-04T13:28:59.054Z,11.82
2023-05-04T13:31:26.799Z,11.38
2023-05-04T13:33:54.156Z,10.32
2023-05-04T13:36:21.540Z,11.35
2023-05-04T13:38:48.900Z,12.13
2023-05-04T13:41:16.243Z,12.93
2023-05-04T13:43:43.605Z,12.43
2023-05-04T13:46:11.234Z,8.65
2023-05-04T13:48:38.593Z,11.50
2023-05-04T13:51:05.970Z,8.40
2023-05-04T13:53:33.293Z,10.80
2023-05-04T13:56:00.665Z,10.52
2023-05-04T13:58:28.031Z,15.65
2023-05-04T14:00:56.308Z,8.27
2023-05-04T14:03:23.806Z,13.18
2023-05-04T14:05:51.798Z,10.90
2023-05-04T14:08:19.160Z,11.43
2023-05-04T14:10:46.512Z,12.55
2023-05-04T14:13:13.988Z,12.93
2023-05-04T14:15:42.446Z,12.43
2023-05-04T14:18:09.813Z,11.38
2023-05-04T14:20:37.297Z,14.05
2023-05-04T14:23:04.684Z,14.40
2023-05-04T14:25:32.120Z,13.82
2023-05-04T14:27:59.592Z,14.13
2023-05-04T14:30:27.468Z,12.55
2023-05-04T14:32:55.514Z,19.80
2023-05-04T14:35:22.978Z,15.30
2023-05-04T14:37:50.733Z,9.75
2023-05-04T14:40:18.201Z,12.55
2023-05-04T14:42:45.772Z,12.57
2023-05-04T14:45:13.528Z,13.48
2023-05-04T14:47:42.414Z,8.77
2023-05-04T14:50:10.396Z,10.00
2023-05-04T14:52:38.069Z,16.90
2023-05-04T14:55:08.533Z,10.05
2023-05-04T14:57:37.147Z,15.25
2023-05-04T15:00:09.517Z,15.98
2023-05-04T15:02:38.759Z,9.50
2023-05-04T15:05:06.829Z,20.75
2023-05-04T15:07:34.206Z,15.32
2023-05-04T15:10:02.230Z,18.52
2023-05-04T15:12:29.626Z,11.23
2023-05-04T15:14:57.037Z,11.32
2023-05-04T15:17:24.461Z,24.35
2023-05-04T15:19:51.889Z,10.55
2023-05-04T15:22:19.302Z,23.48
2023-05-04T15:24:46.645Z,10.80
2023-05-04T15:27:14.024Z,11.40
2023-05-04T15:29:41.361Z,12.32
2023-05-04T15:32:08.765Z,11.90
2023-05-04T15:34:36.111Z,14.10
2023-05-04T15:37:03.475Z,9.82
2023-05-04T15:39:31.151Z,9.48
2023-05-04T15:41:58.598Z,13.32
2023-05-04T15:44:27.728Z,9.13
2023-05-04T15:46:55.179Z,11.45
2023-05-04T15:49:22.522Z,21.50
2023-05-04T15:51:50.210Z,10.82
2023-05-04T15:54:17.519Z,12.90
2023-05-04T15:56:44.954Z,12.00
2023-05-04T15:59:12.396Z,9.82
2023-05-04T16:01:40.112Z,9.65
2023-05-04T16:04:07.520Z,9.95
2023-05-04T16:06:34.868Z,9.05
2023-05-04T16:09:02.260Z,7.97
2023-05-04T16:11:30.421Z,15.02
2023-05-04T16:13:57.799Z,9.73
2023-05-04T16:16:25.231Z,12.50
2023-05-04T16:18:53.748Z,9.95
2023-05-04T16:21:21.277Z,8.35
2023-05-04T16:23:48.709Z,12.07
2023-05-04T16:26:16.101Z,14.63
2023-05-04T16:28:45.210Z,9.82
2023-05-04T16:31:12.875Z,9.85
2023-05-04T16:33:41.395Z,10.88
2023-05-04T16:36:09.228Z,12.80
2023-05-04T16:38:36.575Z,11.05
2023-05-04T16:41:03.907Z,12.05
2023-05-04T16:43:31.897Z,9.55
2023-05-04T16:45:59.232Z,12.05
2023-05-04T16:48:26.849Z,13.45
2023-05-04T16:53:51.700Z,12.90
2023-05-04T16:56:19.552Z,10.82
2023-05-04T16:58:46.934Z,10.18
2023-05-04T17:01:14.278Z,10.45
2023-05-04T17:03:41.686Z,12.85
2023-05-04T17:06:09.043Z,23.33
2023-05-04T17:08:36.545Z,11.65
2023-05-04T17:11:04.068Z,6.80
2023-05-04T17:13:31.439Z,10.02
2023-05-04T17:15:58.806Z,15.70
2023-05-04T17:18:26.147Z,13.48
2023-05-04T17:20:53.453Z,12.90
2023-05-04T17:23:21.365Z,12.55
2023-05-04T17:25:50.163Z,14.35
2023-05-04T17:28:17.563Z,9.40
2023-05-04T17:30:44.921Z,14.02
2023-05-04T17:33:12.332Z,11.23
2023-05-04T17:35:39.731Z,11.20
2023-05-04T17:38:07.065Z,9.52
2023-05-04T17:40:34.529Z,13.10
2023-05-04T17:43:01.973Z,9.35
2023-05-04T17:45:29.337Z,7.60
2023-05-04T17:47:57.276Z,14.32
2023-05-04T17:50:25.460Z,7.55
2023-05-04T17:52:54.171Z,9.48
2023-05-04T17:55:24.381Z,13.90
2023-05-04T17:57:52.830Z,12.82
2023-05-04T18:00:20.884Z,14.48
2023-05-04T18:02:48.390Z,14.90
2023-05-04T18:05:15.883Z,8.05
2023-05-04T18:07:43.271Z,17.75
2023-05-04T18:10:10.975Z,8.25
2023-05-04T18:12:38.515Z,12.68
2023-05-04T18:15:08.428Z,12.25
2023-05-04T18:17:37.848Z,11.25
2023-05-04T18:20:09.366Z,8.50
2023-05-04T18:22:37.036Z,9.88
2023-05-04T18:25:04.735Z,11.45
2023-05-04T18:27:33.474Z,12.20
2023-05-04T18:30:01.468Z,9.50
2023-05-04T18:32:28.874Z,12.30
2023-05-04T18:34:57.949Z,9.38
2023-05-04T18:37:25.553Z,10.18
2023-05-04T18:39:52.928Z,13.25
2023-05-04T18:42:20.222Z,13.75
2023-05-04T18:44:47.583Z,11.40
2023-05-04T18:47:14.872Z,10.40
2023-05-04T18:49:44.010Z,10.18
2023-05-04T18:52:11.337Z,9.60
2023-05-04T18:54:38.650Z,12.02
2023-05-04T18:57:06.755Z,10.00
2023-05-04T18:59:34.971Z,11.88
2023-05-04T19:02:02.378Z,11.07
2023-05-04T19:04:29.948Z,11.05
2023-05-04T19:07:00.225Z,8.73
2023-05-04T19:09:27.803Z,10.82
2023-05-04T19:11:55.200Z,10.68
2023-05-04T19:14:22.504Z,9.52
2023-05-04T19:16:49.845Z,6.43
2023-05-04T19:19:17.718Z,11.82
2023-05-04T19:21:45.061Z,11.18
2023-05-04T19:24:12.435Z,10.60
2023-05-04T19:26:40.056Z,11.23
2023-05-04T19:29:07.465Z,8.82
2023-05-04T19:31:34.891Z,10.15
2023-05-04T19:34:02.538Z,11.07
2023-05-04T19:36:29.943Z,13.45
2023-05-04T19:38:57.386Z,15.52
2023-05-04T19:41:24.687Z,10.45
2023-05-04T19:43:52.255Z,12.45
2023-05-04T19:46:20.628Z,12.77
2023-05-04T19:48:48.006Z,14.38
2023-05-04T19:51:15.712Z,9.60
2023-05-04T19:53:43.071Z,10.23
2023-05-04T19:56:10.426Z,10.55
2023-05-04T19:58:38.631Z,10.82
2023-05-04T20:01:06.151Z,12.95
2023-05-04T20:03:34.663Z,9.85
2023-05-04T20:06:03.626Z,11.13
2023-05-04T20:08:31.054Z,7.72
2023-05-04T20:10:58.405Z,9.85
2023-05-04T20:13:25.860Z,12.57
2023-05-04T20:15:53.249Z,11.05
2023-05-04T20:18:20.605Z,10.32
2023-05-04T20:20:48.008Z,9.10
2023-05-04T20:23:15.354Z,9.82
2023-05-04T20:25:42.912Z,11.05
2023-05-04T20:28:10.639Z,10.10
2023-05-04T20:30:38.052Z,9.35
2023-05-04T20:33:05.477Z,16.75
2023-05-04T20:35:32.881Z,12.77
2023-05-04T20:38:00.267Z,15.35
2023-05-04T20:40:27.623Z,9.13
2023-05-04T20:42:54.959Z,8.02
2023-05-04T20:45:22.433Z,9.10
2023-05-04T20:47:49.899Z,7.18
2023-05-04T20:50:18.262Z,9.25
2023-05-04T20:52:45.803Z,16.52
2023-05-04T20:55:13.211Z,12.00
2023-05-04T20:57:40.697Z,9.27
2023-05-04T21:00:09.389Z,11.52
2023-05-04T21:02:37.035Z,16.17
2023-05-04T21:05:04.757Z,8.80
2023-05-04T21:07:32.084Z,11.00
2023-05-04T21:09:59.448Z,10.98
2023-05-04T21:12:28.084Z,11.90
2023-05-04T21:14:55.508Z,10.82
2023-05-04T21:17:25.501Z,10.90
2023-05-04T21:19:52.902Z,13.15
2023-05-04T21:22:20.242Z,11.50
2023-05-04T21:24:47.712Z,13.27
2023-05-04T21:27:15.105Z,10.68
2023-05-04T21:29:42.407Z,10.55
2023-05-04T21:32:09.994Z,13.65
2023-05-04T21:34:37.330Z,10.57
2023-05-04T21:37:04.771Z,9.75
2023-05-04T21:39:32.196Z,11.60
2023-05-04T21:41:59.603Z,9.20
2023-05-04T21:44:26.993Z,11.05
2023-05-04T21:46:55.779Z,9.75
2023-05-04T21:49:23.783Z,9.27
2023-05-04T21:51:51.114Z,7.43
2023-05-04T21:54:18.472Z,9.38
2023-05-04T21:56:45.763Z,9.40
2023-05-04T21:59:13.042Z,9.88
2023-05-04T22:01:42.367Z,9.25
2023-05-04T22:04:09.836Z,9.23
2023-05-04T22:06:37.676Z,10.10
2023-05-04T22:09:05.166Z,11.45
2023-05-04T22:11:32.461Z,8.55
2023-05-04T22:13:59.815Z,13.07
2023-05-04T22:16:27.349Z,11.90
2023-05-04T22:18:54.717Z,10.45
2023-05-04T22:21:22.008Z,10.30
2023-05-04T22:23:49.432Z,12.82
2023-05-04T22:26:16.907Z,8.13
2023-05-04T22:28:44.244Z,9.48
2023-05-04T22:31:11.713Z,9.23
2023-05-04T22:33:39.061Z,10.70
2023-05-04T22:36:06.639Z,9.13
2023-05-04T22:38:34.017Z,11.75
2023-05-04T22:41:01.458Z,6.97
2023-05-04T22:43:28.888Z,9.13
2023-05-04T22:45:56.251Z,11.02
2023-05-04T22:48:23.730Z,8.23
2023-05-04T22:50:51.187Z,10.10
2023-05-04T22:53:18.472Z,13.85
2023-05-04T22:55:45.808Z,11.30
2023-05-04T22:58:13.156Z,9.77
2023-05-04T23:00:40.499Z,12.40
2023-05-04T23:03:08.043Z,14.45
2023-05-04T23:05:35.583Z,12.82
2023-05-04T23:08:03.817Z,13.48
2023-05-04T23:10:31.296Z,13.50
2023-05-04T23:12:58.722Z,7.78
2023-05-04T23:15:26.150Z,9.30
2023-05-04T23:17:53.590Z,13.05
2023-05-04T23:20:21.053Z,10.23
2023-05-04T23:22:48.364Z,11.10
2023-05-04T23:25:15.897Z,14.93
2023-05-04T23:27:43.276Z,13.32
2023-05-04T23:30:10.796Z,12.45
2023-05-04T23:32:38.290Z,13.07
2023-05-04T23:35:06.400Z,11.98
2023-05-04T23:37:33.725Z,15.68
2023-05-04T23:40:01.092Z,10.15
2023-05-04T23:42:28.470Z,11.95
2023-05-04T23:44:56.042Z,13.38
2023-05-04T23:47:23.564Z,13.93
2023-05-04T23:49:50.927Z,13.73
2023-05-04T23:52:18.228Z,13.48
2023-05-04T23:54:46.456Z,10.23
2023-05-04T23:57:13.775Z,12.13
2023-05-04T23:59:42.006Z,10.40
